sensor_id;sensor_type;location;lat;lon;timestamp;pressure;altitude;pressure_sealevel;temperature;humidity
63582;BME280;49727;51.078;17.066;2023-03-14T00:04:36;98413.00;;;9.48;57.04
63582;BME280;49727;51.078;17.066;2023-03-14T00:19:36;98431.00;;;9.53;57.25
63582;BME280;49727;51.078;17.066;2023-03-14T00:34:37;98403.81;;;9.44;57.20
63582;BME280;49727;51.078;17.066;2023-03-14T00:49:37;98393.59;;;9.54;57.37
63582;BME280;49727;51.078;17.066;2023-03-14T01:04:38;98468.41;;;9.71;57.23
63582;BME280;49727;51.078;17.066;2023-03-14T01:19:39;98432.78;;;9.92;57.18
63582;BME280;49727;51.078;17.066;2023-03-14T01:34:40;98412.38;;;10.25;56.08
63582;BME280;49727;51.078;17.066;2023-03-14T01:49:40;98356.00;;;10.41;55.12
63582;BME280;49727;51.078;17.066;2023-03-14T02:04:41;98339.69;;;10.31;55.37
63582;BME280;49727;51.078;17.066;2023-03-14T02:34:57;98273.38;;;9.45;58.24
63582;BME280;49727;51.078;17.066;2023-03-14T02:50:03;98247.88;;;9.31;58.80
63582;BME280;49727;51.078;17.066;2023-03-14T03:05:04;98214.41;;;9.17;59.12
63582;BME280;49727;51.078;17.066;2023-03-14T03:20:05;98182.00;;;9.78;58.59
63582;BME280;49727;51.078;17.066;2023-03-14T03:35:09;98185.28;;;10.06;56.82
63582;BME280;49727;51.078;17.066;2023-03-14T03:50:10;98142.03;;;9.92;57.00
63582;BME280;49727;51.078;17.066;2023-03-14T04:05:11;98135.06;;;9.91;57.10
63582;BME280;49727;51.078;17.066;2023-03-14T04:20:12;98112.22;;;10.08;57.25
63582;BME280;49727;51.078;17.066;2023-03-14T04:35:13;98066.34;;;10.38;56.52
63582;BME280;49727;51.078;17.066;2023-03-14T04:50:14;98104.78;;;10.42;55.78
63582;BME280;49727;51.078;17.066;2023-03-14T05:05:15;98103.69;;;10.25;55.63
63582;BME280;49727;51.078;17.066;2023-03-14T05:20:15;98063.25;;;10.16;56.11
63582;BME280;49727;51.078;17.066;2023-03-14T05:35:16;98048.38;;;9.90;57.50
63582;BME280;49727;51.078;17.066;2023-03-14T05:50:17;98084.94;;;9.69;58.36
63582;BME280;49727;51.078;17.066;2023-03-14T06:05:17;98063.72;;;9.62;58.97
63582;BME280;49727;51.078;17.066;2023-03-14T06:20:18;98071.78;;;9.74;59.26
63582;BME280;49727;51.078;17.066;2023-03-14T06:35:18;98115.31;;;10.05;58.33
63582;BME280;49727;51.078;17.066;2023-03-14T06:50:19;98093.16;;;10.11;58.36
63582;BME280;49727;51.078;17.066;2023-03-14T07:05:19;98096.81;;;10.17;57.75
63582;BME280;49727;51.078;17.066;2023-03-14T07:20:19;98135.53;;;10.13;57.46
63582;BME280;49727;51.078;17.066;2023-03-14T07:35:21;98137.19;;;10.07;57.98
63582;BME280;49727;51.078;17.066;2023-03-14T07:50:22;98115.78;;;10.02;58.07
63582;BME280;49727;51.078;17.066;2023-03-14T08:05:22;98099.66;;;9.97;58.05
63582;BME280;49727;51.078;17.066;2023-03-14T08:20:25;98110.44;;;9.77;58.72
63582;BME280;49727;51.078;17.066;2023-03-14T08:35:26;98142.09;;;9.53;59.82
63582;BME280;49727;51.078;17.066;2023-03-14T08:50:27;98168.56;;;9.28;61.05
63582;BME280;49727;51.078;17.066;2023-03-14T09:05:27;98165.97;;;9.60;61.75
63582;BME280;49727;51.078;17.066;2023-03-14T09:20:27;98172.19;;;9.79;60.78
63582;BME280;49727;51.078;17.066;2023-03-14T09:35:28;98180.94;;;9.86;60.01
63582;BME280;49727;51.078;17.066;2023-03-14T09:50:43;98215.34;;;9.81;60.81
63582;BME280;49727;51.078;17.066;2023-03-14T10:05:45;98222.59;;;9.99;61.25
63582;BME280;49727;51.078;17.066;2023-03-14T10:20:48;98221.47;;;10.45;61.42
63582;BME280;49727;51.078;17.066;2023-03-14T10:36:05;98205.06;;;10.92;60.80
63582;BME280;49727;51.078;17.066;2023-03-14T10:51:08;98186.47;;;11.23;60.66
63582;BME280;49727;51.078;17.066;2023-03-14T11:36:50;98144.47;;;13.79;56.31
63582;BME280;49727;51.078;17.066;2023-03-14T11:51:56;98151.66;;;13.90;55.72
63582;BME280;49727;51.078;17.066;2023-03-14T12:07:03;98149.38;;;13.12;56.29
63582;BME280;49727;51.078;17.066;2023-03-14T13:22:59;98096.56;;;11.72;60.07
63582;BME280;49727;51.078;17.066;2023-03-14T13:38:01;98095.66;;;11.78;60.84
63582;BME280;49727;51.078;17.066;2023-03-14T13:53:01;98093.53;;;11.57;62.06
63582;BME280;49727;51.078;17.066;2023-03-14T14:08:03;98098.13;;;11.49;62.46
63582;BME280;49727;51.078;17.066;2023-03-14T14:23:12;98095.34;;;11.44;62.43
63582;BME280;49727;51.078;17.066;2023-03-14T14:38:16;98100.50;;;11.58;62.40
63582;BME280;49727;51.078;17.066;2023-03-14T14:53:30;98083.38;;;11.77;62.01
63582;BME280;49727;51.078;17.066;2023-03-14T15:08:36;98071.94;;;12.24;61.61
63582;BME280;49727;51.078;17.066;2023-03-14T15:23:37;98063.13;;;12.88;60.00
63582;BME280;49727;51.078;17.066;2023-03-14T15:38:37;98058.75;;;12.70;60.00
63582;BME280;49727;51.078;17.066;2023-03-14T15:53:38;98058.22;;;12.56;59.83
63582;BME280;49727;51.078;17.066;2023-03-14T16:08:38;98060.88;;;12.44;59.64
63582;BME280;49727;51.078;17.066;2023-03-14T16:23:39;98071.81;;;12.31;58.65
63582;BME280;49727;51.078;17.066;2023-03-14T16:38:42;98062.91;;;12.01;58.44
63582;BME280;49727;51.078;17.066;2023-03-14T16:53:43;98077.88;;;11.60;58.20
63582;BME280;49727;51.078;17.066;2023-03-14T17:08:44;98106.03;;;10.95;59.91
63582;BME280;49727;51.078;17.066;2023-03-14T17:23:44;98129.19;;;10.39;61.54
63582;BME280;49727;51.078;17.066;2023-03-14T17:38:45;98145.25;;;10.01;63.25
63582;BME280;49727;51.078;17.066;2023-03-14T17:53:45;98150.88;;;9.86;64.11
63582;BME280;49727;51.078;17.066;2023-03-14T18:08:46;98165.91;;;9.73;64.64
63582;BME280;49727;51.078;17.066;2023-03-14T18:23:46;98166.63;;;9.48;64.55
63582;BME280;49727;51.078;17.066;2023-03-14T18:38:47;98163.69;;;9.25;65.44
63582;BME280;49727;51.078;17.066;2023-03-14T18:53:50;98160.50;;;9.09;65.92
63582;BME280;49727;51.078;17.066;2023-03-14T19:08:50;98184.25;;;8.91;66.48
63582;BME280;49727;51.078;17.066;2023-03-14T19:23:51;98189.19;;;8.80;67.45
63582;BME280;49727;51.078;17.066;2023-03-14T19:38:52;98218.97;;;8.89;67.90
63582;BME280;49727;51.078;17.066;2023-03-14T19:53:52;98284.31;;;9.10;68.68
63582;BME280;49727;51.078;17.066;2023-03-14T20:08:53;98454.03;;;7.18;71.43
63582;BME280;49727;51.078;17.066;2023-03-14T20:23:53;98525.91;;;6.42;73.23
63582;BME280;49727;51.078;17.066;2023-03-14T20:38:54;98584.38;;;5.56;72.95
63582;BME280;49727;51.078;17.066;2023-03-14T20:53:54;98645.00;;;4.47;71.95
63582;BME280;49727;51.078;17.066;2023-03-14T21:08:54;98751.44;;;3.80;72.13
63582;BME280;49727;51.078;17.066;2023-03-14T21:23:55;98825.72;;;3.41;72.47
63582;BME280;49727;51.078;17.066;2023-03-14T21:38:55;98871.47;;;3.13;72.20
63582;BME280;49727;51.078;17.066;2023-03-14T21:53:56;98920.34;;;2.98;72.42
63582;BME280;49727;51.078;17.066;2023-03-14T22:08:56;98972.22;;;2.87;72.28
63582;BME280;49727;51.078;17.066;2023-03-14T22:23:57;99030.53;;;2.83;72.37
63582;BME280;49727;51.078;17.066;2023-03-14T22:38:57;99058.34;;;2.85;72.32
63582;BME280;49727;51.078;17.066;2023-03-14T22:53:57;99089.16;;;2.75;72.46
63582;BME280;49727;51.078;17.066;2023-03-14T23:08:58;99102.06;;;2.68;72.40
63582;BME280;49727;51.078;17.066;2023-03-14T23:23:58;99131.94;;;2.67;72.21
63582;BME280;49727;51.078;17.066;2023-03-14T23:38:59;99167.25;;;2.65;72.44
63582;BME280;49727;51.078;17.066;2023-03-14T23:53:59;99213.22;;;2.61;72.20
